South Portland, Maine
Current Conditions -  °F | °C
As of 11:51 AM on Friday 24 Oct 2014 (Local Time) from KPWM Reporting Station
Overcast Overcast  
Wind Chill: 11°   Ceiling: 1700
Heat Index: 11°   Visibility: 10mi
Dew Point:   Wind: 14mph
Humidity: 83%   Direction: 350°N
Pressure: 29.7"   Gusts: 21mph
Location:  43.64°N, 70.25°W
Report Text: KPWM 241551Z 35012G18KT 10SM BKN017 OVC025 11/08 A2970 RMK AO2 RAB40E50 SLP057 P0000 T01060078
Loading
Personal Weather Stations






























Interactive Weather Map
Tropical Storm Tracking
New forecast layout! Learn more

10-Day Weather Forecast

Advertisements
Track Severe Weather on mobile